createdAt,value
2024-04-18T00:00:54.779Z,945.88
2024-04-18T00:01:54.381Z,945.87
2024-04-18T00:02:54.359Z,945.93
2024-04-18T00:03:54.578Z,945.90
2024-04-18T00:04:54.433Z,945.85
2024-04-18T00:05:55.134Z,945.88
2024-04-18T00:06:54.347Z,945.87
2024-04-18T00:07:54.343Z,945.85
2024-04-18T00:08:54.276Z,945.84
2024-04-18T00:09:54.306Z,945.85
2024-04-18T00:10:54.286Z,945.82
2024-04-18T00:11:54.248Z,945.86
2024-04-18T00:12:54.226Z,945.87
2024-04-18T00:13:54.212Z,945.87
2024-04-18T00:14:54.183Z,945.86
2024-04-18T00:15:54.242Z,945.85
2024-04-18T00:16:54.160Z,945.86
2024-04-18T00:17:54.275Z,945.83
2024-04-18T00:18:54.209Z,945.81
2024-04-18T00:19:54.125Z,945.81
2024-04-18T00:20:54.165Z,945.85
2024-04-18T00:21:54.100Z,945.85
2024-04-18T00:22:54.087Z,945.78
2024-04-18T00:23:54.105Z,945.80
2024-04-18T00:24:54.098Z,945.82
2024-04-18T00:25:54.080Z,945.83
2024-04-18T00:26:54.014Z,945.80
2024-04-18T00:27:54.067Z,945.79
2024-04-18T00:28:54.009Z,945.84
2024-04-18T00:29:53.998Z,945.81
2024-04-18T00:30:54.016Z,945.80
2024-04-18T00:31:53.969Z,945.85
2024-04-18T00:32:53.968Z,945.86
2024-04-18T00:33:53.970Z,945.87
2024-04-18T00:34:53.931Z,945.81
2024-04-18T00:35:53.980Z,945.83
2024-04-18T00:36:53.894Z,945.83
2024-04-18T00:37:53.885Z,945.79
2024-04-18T00:38:53.885Z,945.80
2024-04-18T00:39:54.010Z,945.80
2024-04-18T00:40:53.860Z,945.79
2024-04-18T00:41:53.863Z,945.81
2024-04-18T00:42:53.831Z,945.78
2024-04-18T00:43:53.805Z,945.84
2024-04-18T00:44:53.776Z,945.82
2024-04-18T00:45:53.878Z,945.78
2024-04-18T00:46:53.772Z,945.81
2024-04-18T00:47:53.932Z,945.81
2024-04-18T00:48:53.945Z,945.80
2024-04-18T00:49:53.734Z,945.78
2024-04-18T00:50:53.749Z,945.80
2024-04-18T00:51:54.621Z,945.80
2024-04-18T00:52:53.686Z,945.76
2024-04-18T00:53:53.696Z,945.79
2024-04-18T00:54:53.660Z,945.80
2024-04-18T00:55:53.651Z,945.79
2024-04-18T00:56:53.631Z,945.84
2024-04-18T00:57:53.646Z,945.85
2024-04-18T00:58:53.602Z,945.84
2024-04-18T00:59:53.619Z,945.85
2024-04-18T01:00:53.753Z,945.83
2024-04-18T01:01:53.594Z,945.82
2024-04-18T01:02:53.615Z,945.81
2024-04-18T01:03:53.636Z,945.84
2024-04-18T01:04:53.560Z,945.82
2024-04-18T01:05:53.524Z,945.81
2024-04-18T01:06:53.506Z,945.76
2024-04-18T01:07:53.504Z,945.77
2024-04-18T01:08:53.549Z,945.78
2024-04-18T01:09:53.539Z,945.79
2024-04-18T01:10:53.448Z,945.78
2024-04-18T01:11:53.509Z,945.80
2024-04-18T01:12:53.479Z,945.80
2024-04-18T01:13:53.420Z,945.82
2024-04-18T01:14:53.478Z,945.82
2024-04-18T01:15:53.399Z,945.81
2024-04-18T01:16:53.363Z,945.84
2024-04-18T01:17:53.506Z,945.85
2024-04-18T01:18:53.348Z,945.81
2024-04-18T01:19:53.410Z,945.85
2024-04-18T01:20:53.311Z,945.88
2024-04-18T01:21:53.416Z,945.84
2024-04-18T01:22:53.303Z,945.88
2024-04-18T01:23:53.261Z,945.85
2024-04-18T01:24:53.276Z,945.89
2024-04-18T01:25:53.244Z,945.90
2024-04-18T01:26:53.250Z,945.85
2024-04-18T01:27:53.226Z,945.87
2024-04-18T01:28:53.222Z,945.85
2024-04-18T01:29:53.216Z,945.84
2024-04-18T01:30:53.235Z,945.88
2024-04-18T01:31:53.208Z,945.92
2024-04-18T01:32:53.261Z,945.91
2024-04-18T01:33:53.238Z,945.94
2024-04-18T01:34:53.121Z,945.92
2024-04-18T01:35:53.111Z,945.95
2024-04-18T01:36:53.299Z,945.94
2024-04-18T01:37:53.107Z,945.92
2024-04-18T01:38:53.130Z,945.97
2024-04-18T01:39:53.104Z,945.93
2024-04-18T01:40:53.045Z,945.93
2024-04-18T01:41:53.051Z,945.93
2024-04-18T01:42:53.125Z,945.93
2024-04-18T01:43:53.007Z,945.93
2024-04-18T01:44:52.991Z,945.95
2024-04-18T01:45:53.029Z,945.93
2024-04-18T01:46:52.956Z,945.94
2024-04-18T01:47:53.198Z,945.96
2024-04-18T01:48:53.010Z,945.95
2024-04-18T01:49:52.918Z,945.96
2024-04-18T01:50:52.906Z,945.97
2024-04-18T01:51:52.965Z,945.97
2024-04-18T01:52:52.884Z,945.93
2024-04-18T01:53:52.921Z,945.91
2024-04-18T01:54:52.848Z,945.94
2024-04-18T01:55:52.831Z,945.89
2024-04-18T01:56:52.923Z,945.91
2024-04-18T01:57:52.851Z,945.91
2024-04-18T01:58:52.836Z,945.94
2024-04-18T01:59:52.798Z,945.93
2024-04-18T02:00:52.887Z,945.92
2024-04-18T02:01:52.814Z,945.89
2024-04-18T02:02:52.794Z,945.90
2024-04-18T02:03:52.938Z,945.87
2024-04-18T02:04:52.799Z,945.89
2024-04-18T02:05:52.702Z,945.87
2024-04-18T02:06:52.717Z,945.86
2024-04-18T02:07:52.773Z,945.84
2024-04-18T02:08:52.670Z,945.78
2024-04-18T02:09:52.689Z,945.81
2024-04-18T02:10:52.703Z,945.79
2024-04-18T02:11:52.653Z,945.80
2024-04-18T02:12:52.609Z,945.80
2024-04-18T02:13:52.669Z,945.85
2024-04-18T02:14:52.597Z,945.83
2024-04-18T02:15:52.592Z,945.87
2024-04-18T02:16:52.560Z,945.85
2024-04-18T02:17:52.674Z,945.89
2024-04-18T02:18:52.580Z,945.90
2024-04-18T02:19:52.508Z,945.92
2024-04-18T02:20:52.503Z,945.89
2024-04-18T02:21:52.488Z,945.92
2024-04-18T02:22:52.479Z,945.92
2024-04-18T02:23:52.515Z,945.87
2024-04-18T02:24:52.480Z,945.90
2024-04-18T02:25:52.434Z,945.93
2024-04-18T02:26:52.429Z,945.98
2024-04-18T02:27:52.433Z,945.98
2024-04-18T02:28:52.392Z,945.97
2024-04-18T02:29:52.422Z,945.94
2024-04-18T02:30:52.398Z,945.97
2024-04-18T02:31:52.547Z,945.95
2024-04-18T02:32:52.389Z,945.92
2024-04-18T02:33:52.446Z,945.93
2024-04-18T02:34:52.317Z,945.93
2024-04-18T02:35:52.308Z,945.96
2024-04-18T02:36:52.356Z,945.93
2024-04-18T02:37:52.292Z,945.98
2024-04-18T02:38:52.297Z,945.93
2024-04-18T02:39:52.458Z,945.95
2024-04-18T02:40:52.247Z,945.93
2024-04-18T02:41:52.220Z,945.96
2024-04-18T02:42:52.232Z,945.96
2024-04-18T02:43:52.324Z,945.96
2024-04-18T02:44:52.194Z,945.95
2024-04-18T02:45:52.356Z,945.97
2024-04-18T02:46:52.159Z,945.95
2024-04-18T02:47:52.263Z,945.96
2024-04-18T02:48:52.199Z,945.98
2024-04-18T02:49:52.216Z,945.96
2024-04-18T02:50:52.107Z,945.96
2024-04-18T02:51:52.130Z,945.96
2024-04-18T02:52:52.103Z,945.94
2024-04-18T02:53:52.085Z,945.97
2024-04-18T02:54:52.114Z,945.94
2024-04-18T02:55:52.076Z,945.94
2024-04-18T02:56:52.058Z,945.88
2024-04-18T02:57:52.040Z,945.91
2024-04-18T02:58:51.994Z,945.96
2024-04-18T02:59:52.011Z,945.95
2024-04-18T03:00:52.121Z,945.96
2024-04-18T03:01:51.959Z,945.97
2024-04-18T03:02:51.986Z,946.00
2024-04-18T03:03:51.996Z,946.03
2024-04-18T03:04:51.909Z,945.98
2024-04-18T03:05:51.902Z,946.01
2024-04-18T03:06:52.042Z,946.01
2024-04-18T03:07:51.874Z,946.02
2024-04-18T03:08:51.870Z,946.03
2024-04-18T03:09:51.926Z,946.02
2024-04-18T03:10:51.884Z,946.02
2024-04-18T03:11:51.815Z,945.99
2024-04-18T03:12:51.859Z,945.99
2024-04-18T03:13:51.838Z,945.98
2024-04-18T03:14:51.793Z,945.99
2024-04-18T03:15:51.847Z,946.00
2024-04-18T03:16:51.818Z,945.97
2024-04-18T03:17:51.825Z,945.96
2024-04-18T03:18:51.838Z,946.00
2024-04-18T03:19:51.800Z,945.99
2024-04-18T03:20:51.806Z,946.01
2024-04-18T03:21:51.737Z,946.02
2024-04-18T03:22:51.688Z,945.99
2024-04-18T03:23:51.668Z,946.01
2024-04-18T03:24:51.753Z,945.99
2024-04-18T03:25:51.639Z,946.02
2024-04-18T03:26:51.735Z,946.02
2024-04-18T03:27:51.651Z,945.97
2024-04-18T03:28:51.601Z,946.01
2024-04-18T03:29:51.637Z,946.02
2024-04-18T03:30:51.629Z,945.97
2024-04-18T03:31:51.606Z,946.02
2024-04-18T03:32:51.712Z,946.05
2024-04-18T03:33:51.617Z,945.97
2024-04-18T03:34:51.608Z,946.01
2024-04-18T03:35:51.499Z,946.02
2024-04-18T03:36:51.616Z,946.04
2024-04-18T03:37:51.491Z,946.05
2024-04-18T03:38:51.479Z,946.01
2024-04-18T03:39:51.533Z,946.02
2024-04-18T03:40:51.430Z,946.04
2024-04-18T03:41:51.446Z,946.04
2024-04-18T03:42:51.480Z,946.04
2024-04-18T03:43:51.412Z,946.06
2024-04-18T03:44:51.427Z,946.05
2024-04-18T03:45:51.390Z,946.07
2024-04-18T03:46:51.364Z,946.04
2024-04-18T03:47:51.451Z,946.04
2024-04-18T03:48:51.354Z,946.06
2024-04-18T03:49:51.397Z,946.06
2024-04-18T03:50:51.408Z,946.08
2024-04-18T03:51:51.354Z,946.07
2024-04-18T03:52:51.299Z,946.03
2024-04-18T03:53:51.293Z,946.10
2024-04-18T03:55:00.964Z,946.05
2024-04-18T03:55:51.245Z,946.10
2024-04-18T03:56:51.243Z,946.09
2024-04-18T03:57:51.254Z,946.11
2024-04-18T03:58:51.190Z,946.16
2024-04-18T03:59:51.232Z,946.17
2024-04-18T04:00:51.319Z,946.21
2024-04-18T04:01:51.205Z,946.19
2024-04-18T04:02:51.163Z,946.18
2024-04-18T04:03:51.263Z,946.21
2024-04-18T04:04:51.143Z,946.18
2024-04-18T04:05:51.143Z,946.21
2024-04-18T04:06:51.132Z,946.22
2024-04-18T04:07:51.091Z,946.20
2024-04-18T04:08:51.107Z,946.21
2024-04-18T04:09:51.126Z,946.26
2024-04-18T04:10:51.169Z,946.26
2024-04-18T04:11:51.071Z,946.25
2024-04-18T04:12:51.118Z,946.23
2024-04-18T04:13:50.999Z,946.25
2024-04-18T04:14:50.980Z,946.27
2024-04-18T04:15:51.321Z,946.29
2024-04-18T04:16:50.980Z,946.29
2024-04-18T04:17:51.067Z,946.25
2024-04-18T04:18:50.970Z,946.28
2024-04-18T04:19:50.901Z,946.33
2024-04-18T04:20:50.895Z,946.32
2024-04-18T04:21:51.110Z,946.36
2024-04-18T04:22:50.876Z,946.35
2024-04-18T04:23:50.872Z,946.34
2024-04-18T04:24:50.943Z,946.35
2024-04-18T04:25:50.861Z,946.36
2024-04-18T04:26:50.818Z,946.36
2024-04-18T04:27:50.846Z,946.38
2024-04-18T04:28:50.814Z,946.38
2024-04-18T04:29:50.852Z,946.35
2024-04-18T04:30:50.956Z,946.38
2024-04-18T04:31:50.827Z,946.39
2024-04-18T04:32:50.929Z,946.39
2024-04-18T04:33:50.818Z,946.41
2024-04-18T04:34:50.719Z,946.40
2024-04-18T04:35:50.701Z,946.43
2024-04-18T04:36:50.777Z,946.45
2024-04-18T04:37:50.699Z,946.44
2024-04-18T04:38:50.714Z,946.41
2024-04-18T04:39:50.774Z,946.48
2024-04-18T04:40:50.643Z,946.50
2024-04-18T04:41:50.660Z,946.50
2024-04-18T04:42:50.693Z,946.50
2024-04-18T04:43:50.583Z,946.54
2024-04-18T04:44:50.579Z,946.53
2024-04-18T04:45:50.655Z,946.56
2024-04-18T04:46:50.600Z,946.56
2024-04-18T04:47:50.721Z,946.58
2024-04-18T04:48:50.669Z,946.60
2024-04-18T04:49:50.508Z,946.61
2024-04-18T04:50:50.508Z,946.61
2024-04-18T04:51:50.492Z,946.65
2024-04-18T04:52:50.582Z,946.67
2024-04-18T04:53:53.911Z,946.66
2024-04-18T04:54:50.637Z,946.66
2024-04-18T04:55:50.451Z,946.71
2024-04-18T04:56:50.420Z,946.71
2024-04-18T04:57:50.453Z,946.68
2024-04-18T04:58:50.413Z,946.69
2024-04-18T04:59:50.390Z,946.70
2024-04-18T05:00:50.457Z,946.69
2024-04-18T05:01:50.357Z,946.74
2024-04-18T05:02:50.424Z,946.77
2024-04-18T05:03:50.484Z,946.77
2024-04-18T05:04:50.369Z,946.71
2024-04-18T05:05:50.351Z,946.78
2024-04-18T05:06:50.393Z,946.77
2024-04-18T05:07:53.854Z,946.77
2024-04-18T05:08:50.281Z,946.82
2024-04-18T05:09:50.401Z,946.83
2024-04-18T05:10:50.264Z,946.83
2024-04-18T05:11:50.237Z,946.85
2024-04-18T05:12:50.495Z,946.83
2024-04-18T05:13:50.189Z,946.85
2024-04-18T05:14:50.172Z,946.85
2024-04-18T05:15:50.260Z,946.86
2024-04-18T05:16:50.290Z,946.86
2024-04-18T05:17:50.165Z,946.87
2024-04-18T05:18:50.228Z,946.85
2024-04-18T05:19:50.115Z,946.88
2024-04-18T05:20:50.125Z,946.90
2024-04-18T05:21:50.197Z,946.93
2024-04-18T05:22:50.066Z,946.92
2024-04-18T05:23:50.055Z,946.91
2024-04-18T05:24:50.182Z,946.91
2024-04-18T05:25:50.040Z,946.95
2024-04-18T05:26:50.308Z,946.96
2024-04-18T05:27:50.067Z,946.98
2024-04-18T05:28:50.082Z,946.95
2024-04-18T05:29:49.994Z,946.92
2024-04-18T05:30:50.110Z,946.93
2024-04-18T05:31:49.954Z,947.00
2024-04-18T05:32:50.012Z,946.98
2024-04-18T05:33:49.947Z,947.00
2024-04-18T05:34:49.903Z,947.02
2024-04-18T05:35:49.898Z,947.01
2024-04-18T05:36:49.927Z,947.01
2024-04-18T05:37:49.912Z,947.03
2024-04-18T05:38:49.860Z,947.06
2024-04-18T05:39:49.927Z,947.06
2024-04-18T05:40:49.836Z,947.08
2024-04-18T05:41:49.806Z,947.06
2024-04-18T05:42:49.884Z,947.08
2024-04-18T05:43:49.822Z,947.08
2024-04-18T05:44:49.775Z,947.11
2024-04-18T05:45:50.915Z,947.12
2024-04-18T05:46:49.831Z,947.16
2024-04-18T05:47:49.739Z,947.19
2024-04-18T05:48:49.756Z,947.22
2024-04-18T05:49:49.778Z,947.24
2024-04-18T05:50:49.712Z,947.22
2024-04-18T05:51:49.752Z,947.24
2024-04-18T05:52:49.673Z,947.29
2024-04-18T05:53:49.652Z,947.26
2024-04-18T05:54:49.741Z,947.27
2024-04-18T05:55:49.690Z,947.28
2024-04-18T05:56:49.623Z,947.24
2024-04-18T05:57:49.682Z,947.29
2024-04-18T05:58:49.606Z,947.27
2024-04-18T05:59:49.580Z,947.29
2024-04-18T06:00:49.588Z,947.32
2024-04-18T06:01:49.611Z,947.33
2024-04-18T06:02:49.566Z,947.32
2024-04-18T06:03:49.562Z,947.33
2024-04-18T06:04:49.552Z,947.34
2024-04-18T06:05:49.516Z,947.40
2024-04-18T06:06:49.570Z,947.38
2024-04-18T06:07:49.572Z,947.36
2024-04-18T06:08:49.449Z,947.39
2024-04-18T06:09:49.505Z,947.39
2024-04-18T06:10:49.430Z,947.42
2024-04-18T06:11:49.462Z,947.43
2024-04-18T06:12:49.498Z,947.38
2024-04-18T06:13:49.392Z,947.42
2024-04-18T06:14:49.414Z,947.45
2024-04-18T06:15:49.841Z,947.45
2024-04-18T06:16:49.373Z,947.47
2024-04-18T06:17:49.465Z,947.44
2024-04-18T06:18:49.348Z,947.45
2024-04-18T06:19:49.307Z,947.47
2024-04-18T06:20:49.316Z,947.49
2024-04-18T06:21:49.344Z,947.51
2024-04-18T06:22:49.353Z,947.52
2024-04-18T06:23:49.258Z,947.50
2024-04-18T06:24:49.342Z,947.52
2024-04-18T06:25:49.234Z,947.50
2024-04-18T06:26:49.223Z,947.49
2024-04-18T06:27:49.251Z,947.49
2024-04-18T06:28:49.245Z,947.51
2024-04-18T06:29:49.176Z,947.55
2024-04-18T06:30:49.194Z,947.50
2024-04-18T06:31:49.140Z,947.54
2024-04-18T06:32:49.246Z,947.54
2024-04-18T06:33:49.317Z,947.54
2024-04-18T06:34:49.129Z,947.50
2024-04-18T06:35:49.100Z,947.54
2024-04-18T06:36:49.115Z,947.56
2024-04-18T06:37:49.081Z,947.57
2024-04-18T06:38:49.065Z,947.59
2024-04-18T06:39:49.168Z,947.56
2024-04-18T06:40:49.085Z,947.56
2024-04-18T06:41:49.012Z,947.59
2024-04-18T06:42:49.049Z,947.60
2024-04-18T06:43:48.986Z,947.63
2024-04-18T06:44:48.973Z,947.61
2024-04-18T06:45:48.973Z,947.60
2024-04-18T06:46:56.751Z,947.61
2024-04-18T06:47:48.998Z,947.58
2024-04-18T06:48:49.028Z,947.59
2024-04-18T06:49:48.911Z,947.63
2024-04-18T06:50:48.909Z,947.62
2024-04-18T06:51:48.965Z,947.61
2024-04-18T06:52:48.861Z,947.66
2024-04-18T06:53:48.876Z,947.67
2024-04-18T06:54:48.903Z,947.66
2024-04-18T06:55:48.826Z,947.66
2024-04-18T06:56:48.827Z,947.69
2024-04-18T06:57:48.843Z,947.70
2024-04-18T06:58:48.778Z,947.73
2024-04-18T06:59:48.775Z,947.69
2024-04-18T07:00:49.020Z,947.75
2024-04-18T07:01:48.750Z,947.76
2024-04-18T07:02:48.756Z,947.74
2024-04-18T07:03:48.863Z,947.71
2024-04-18T07:04:48.868Z,947.75
2024-04-18T07:05:48.817Z,947.75
2024-04-18T07:06:48.753Z,947.78
2024-04-18T07:07:48.661Z,947.75
2024-04-18T07:08:48.737Z,947.76
2024-04-18T07:09:49.944Z,947.75
2024-04-18T07:10:48.608Z,947.74
2024-04-18T07:11:48.670Z,947.76
2024-04-18T07:12:48.654Z,947.79
2024-04-18T07:13:48.588Z,947.78
2024-04-18T07:14:48.620Z,947.75
2024-04-18T07:15:48.616Z,947.80
2024-04-18T07:16:48.559Z,947.85
2024-04-18T07:17:48.689Z,947.82
2024-04-18T07:18:48.626Z,947.80
2024-04-18T07:19:48.499Z,947.82
2024-04-18T07:20:48.625Z,947.82
2024-04-18T07:21:48.563Z,947.88
2024-04-18T07:22:48.452Z,947.84
2024-04-18T07:23:48.470Z,947.83
2024-04-18T07:24:48.467Z,947.82
2024-04-18T07:25:48.472Z,947.83
2024-04-18T07:26:48.428Z,947.82
2024-04-18T07:27:48.438Z,947.85
2024-04-18T07:28:48.409Z,947.87
2024-04-18T07:29:48.379Z,947.85
2024-04-18T07:30:48.423Z,947.87
2024-04-18T07:31:48.439Z,947.88
2024-04-18T07:32:48.527Z,947.90
2024-04-18T07:33:48.368Z,947.89
2024-04-18T07:34:48.308Z,947.92
2024-04-18T07:35:48.303Z,947.91
2024-04-18T07:36:48.466Z,947.98
2024-04-18T07:37:48.299Z,947.97
2024-04-18T07:38:48.245Z,947.99
2024-04-18T07:39:48.292Z,947.93
2024-04-18T07:40:48.272Z,947.95
2024-04-18T07:41:48.306Z,947.96
2024-04-18T07:42:48.287Z,947.99
2024-04-18T07:43:48.186Z,947.99
2024-04-18T07:44:48.163Z,947.96
2024-04-18T07:45:48.230Z,947.96
2024-04-18T07:46:48.162Z,947.97
2024-04-18T07:47:48.236Z,948.00
2024-04-18T07:48:48.183Z,948.04
2024-04-18T07:49:49.529Z,947.99
2024-04-18T07:50:48.096Z,948.05
2024-04-18T07:51:48.476Z,948.03
2024-04-18T07:52:56.589Z,948.05
2024-04-18T07:53:48.061Z,948.00
2024-04-18T07:54:48.094Z,948.02
2024-04-18T07:55:48.054Z,948.04
2024-04-18T07:56:48.309Z,948.09
2024-04-18T07:57:48.810Z,948.05
2024-04-18T07:58:48.637Z,948.11
2024-04-18T07:59:48.860Z,948.15
2024-04-18T08:00:49.238Z,948.10
2024-04-18T08:01:49.333Z,948.10
2024-04-18T08:02:49.522Z,948.16
2024-04-18T08:03:56.262Z,948.14
2024-04-18T08:04:55.409Z,948.14
2024-04-18T08:05:50.239Z,948.16
2024-04-18T08:06:50.939Z,948.18
2024-04-18T08:07:51.252Z,948.15
2024-04-18T08:08:51.413Z,948.18
2024-04-18T08:09:51.050Z,948.17
2024-04-18T08:11:08.046Z,948.20
2024-04-18T08:12:51.244Z,948.26
2024-04-18T08:13:52.392Z,948.22
2024-04-18T08:14:51.020Z,948.25
2024-04-18T08:16:47.814Z,948.27
2024-04-18T08:17:47.804Z,948.32
2024-04-18T08:18:47.772Z,948.36
2024-04-18T08:19:47.760Z,948.33
2024-04-18T08:20:47.679Z,948.33
2024-04-18T08:21:47.679Z,948.32
2024-04-18T08:22:47.664Z,948.31
2024-04-18T08:23:47.665Z,948.29
2024-04-18T08:24:47.643Z,948.35
2024-04-18T08:25:48.151Z,948.36
2024-04-18T08:26:47.637Z,948.35
2024-04-18T08:27:47.602Z,948.39
2024-04-18T08:28:47.728Z,948.38
2024-04-18T08:29:47.574Z,948.42
2024-04-18T08:30:47.649Z,948.46
2024-04-18T08:31:47.560Z,948.44
2024-04-18T08:32:47.549Z,948.45
2024-04-18T08:33:54.371Z,948.42
2024-04-18T08:34:48.698Z,948.45
2024-04-18T08:35:47.529Z,948.49
2024-04-18T08:36:47.474Z,948.49
2024-04-18T08:37:47.459Z,948.46
2024-04-18T08:38:47.445Z,948.48
2024-04-18T08:39:47.445Z,948.50
2024-04-18T08:40:47.476Z,948.47
2024-04-18T08:41:47.638Z,948.50
2024-04-18T08:42:47.386Z,948.53
2024-04-18T08:43:52.087Z,948.48
2024-04-18T08:44:47.404Z,948.52
2024-04-18T08:45:47.347Z,948.52
2024-04-18T08:46:47.394Z,948.54
2024-04-18T08:47:47.418Z,948.55
2024-04-18T08:48:47.429Z,948.60
2024-04-18T08:49:47.333Z,948.57
2024-04-18T08:50:47.345Z,948.57
2024-04-18T08:51:47.327Z,948.57
2024-04-18T08:52:47.295Z,948.61
2024-04-18T08:53:47.264Z,948.57
2024-04-18T08:54:47.245Z,948.58
2024-04-18T08:55:47.271Z,948.60
2024-04-18T08:56:47.217Z,948.62
2024-04-18T08:57:47.190Z,948.62
2024-04-18T08:58:47.170Z,948.64
2024-04-18T08:59:47.161Z,948.67
2024-04-18T09:00:47.218Z,948.65
2024-04-18T09:01:47.208Z,948.69
2024-04-18T09:02:47.146Z,948.66
2024-04-18T09:03:47.118Z,948.68
2024-04-18T09:04:47.124Z,948.68
2024-04-18T09:05:47.097Z,948.65
2024-04-18T09:06:47.059Z,948.66
2024-04-18T09:07:47.075Z,948.65
2024-04-18T09:08:47.033Z,948.61
2024-04-18T09:09:47.053Z,948.65
2024-04-18T09:10:47.134Z,948.63
2024-04-18T09:11:47.133Z,948.64
2024-04-18T09:12:46.993Z,948.66
2024-04-18T09:13:46.994Z,948.68
2024-04-18T09:14:46.961Z,948.73
2024-04-18T09:15:46.960Z,948.66
2024-04-18T09:16:46.996Z,948.70
2024-04-18T09:17:47.061Z,948.67
2024-04-18T09:18:47.011Z,948.71
2024-04-18T09:19:46.891Z,948.74
2024-04-18T09:20:46.874Z,948.73
2024-04-18T09:21:46.876Z,948.69
2024-04-18T09:22:46.901Z,948.73
2024-04-18T09:23:46.843Z,948.77
2024-04-18T09:24:46.822Z,948.75
2024-04-18T09:25:47.692Z,948.77
2024-04-18T09:26:46.818Z,948.82
2024-04-18T09:27:46.800Z,948.80
2024-04-18T09:28:46.961Z,948.81
2024-04-18T09:29:46.760Z,948.86
2024-04-18T09:30:46.798Z,948.86
2024-04-18T09:31:46.761Z,948.86
2024-04-18T09:32:46.800Z,948.86
2024-04-18T09:33:46.853Z,948.90
2024-04-18T09:34:47.243Z,948.91
2024-04-18T09:35:46.684Z,948.89
2024-04-18T09:36:46.710Z,948.91
2024-04-18T09:37:53.152Z,948.92
2024-04-18T09:38:46.689Z,948.93
2024-04-18T09:39:46.764Z,948.92
2024-04-18T09:40:46.660Z,948.93
2024-04-18T09:41:46.589Z,948.91
2024-04-18T09:42:46.631Z,948.93
2024-04-18T09:43:46.584Z,948.94
2024-04-18T09:44:46.549Z,948.96
2024-04-18T09:45:46.582Z,948.97
2024-04-18T09:46:46.545Z,949.00
2024-04-18T09:47:46.610Z,948.99
2024-04-18T09:48:46.648Z,948.96
2024-04-18T09:49:46.520Z,948.94
2024-04-18T09:50:46.483Z,948.97
2024-04-18T09:51:46.560Z,948.95
2024-04-18T09:52:46.454Z,949.00
2024-04-18T09:53:46.500Z,948.98
2024-04-18T09:54:46.411Z,948.98
2024-04-18T09:55:46.410Z,949.02
2024-04-18T09:56:46.519Z,948.98
2024-04-18T09:57:46.391Z,948.97
2024-04-18T09:58:46.360Z,948.97
2024-04-18T09:59:46.360Z,949.04
2024-04-18T10:00:46.360Z,949.01
2024-04-18T10:01:46.418Z,949.03
2024-04-18T10:02:46.332Z,949.03
2024-04-18T10:03:46.525Z,949.03
2024-04-18T10:04:46.322Z,949.01
2024-04-18T10:05:46.279Z,949.06
2024-04-18T10:06:46.323Z,949.05
2024-04-18T10:07:46.240Z,948.99
2024-04-18T10:08:46.298Z,949.06
2024-04-18T10:09:46.243Z,949.05
2024-04-18T10:10:46.274Z,949.06
2024-04-18T10:11:46.271Z,949.02
2024-04-18T10:12:46.184Z,949.06
2024-04-18T10:13:46.201Z,949.05
2024-04-18T10:14:46.223Z,949.06
2024-04-18T10:15:46.191Z,949.05
2024-04-18T10:16:46.138Z,949.06
2024-04-18T10:17:46.144Z,949.07
2024-04-18T10:18:46.984Z,949.09
2024-04-18T10:19:46.135Z,949.06
2024-04-18T10:20:46.098Z,949.10
2024-04-18T10:22:47.940Z,949.10
2024-04-18T10:23:46.123Z,949.13
2024-04-18T10:24:46.067Z,949.12
2024-04-18T10:25:45.997Z,949.12
2024-04-18T10:26:46.056Z,949.13
2024-04-18T10:27:46.035Z,949.14
2024-04-18T10:28:45.991Z,949.13
2024-04-18T10:29:46.013Z,949.12
2024-04-18T10:30:45.946Z,949.12
2024-04-18T10:31:46.002Z,949.11
2024-04-18T10:32:46.701Z,949.18
2024-04-18T10:33:46.018Z,949.16
2024-04-18T10:34:45.887Z,949.17
2024-04-18T10:35:45.910Z,949.11
2024-04-18T10:36:45.878Z,949.15
2024-04-18T10:37:45.839Z,949.15
2024-04-18T10:38:45.827Z,949.14
2024-04-18T10:39:45.882Z,949.19
2024-04-18T10:40:45.803Z,949.24
2024-04-18T10:41:45.837Z,949.22
2024-04-18T10:42:45.808Z,949.25
2024-04-18T10:43:45.762Z,949.22
2024-04-18T10:44:45.789Z,949.25
2024-04-18T10:45:45.770Z,949.29
2024-04-18T10:46:45.776Z,949.27
2024-04-18T10:47:45.789Z,949.24
2024-04-18T10:48:45.862Z,949.29
2024-04-18T10:49:45.735Z,949.30
2024-04-18T10:50:45.666Z,949.25
2024-04-18T10:51:45.643Z,949.28
2024-04-18T10:52:45.636Z,949.27
2024-04-18T10:53:45.633Z,949.25
2024-04-18T10:54:45.759Z,949.30
2024-04-18T10:55:45.615Z,949.27
2024-04-18T10:56:45.600Z,949.26
2024-04-18T10:57:45.614Z,949.28
2024-04-18T10:58:45.569Z,949.26
2024-04-18T10:59:45.549Z,949.28
2024-04-18T11:00:45.690Z,949.24
2024-04-18T11:01:45.618Z,949.23
2024-04-18T11:02:45.516Z,949.31
2024-04-18T11:03:45.576Z,949.26
2024-04-18T11:04:45.493Z,949.27
2024-04-18T11:05:45.486Z,949.29
2024-04-18T11:06:45.522Z,949.26
2024-04-18T11:07:45.432Z,949.31
2024-04-18T11:08:45.420Z,949.28
2024-04-18T11:09:45.604Z,949.27
2024-04-18T11:10:45.431Z,949.26
2024-04-18T11:11:45.402Z,949.16
2024-04-18T11:12:45.418Z,949.19
2024-04-18T11:13:45.377Z,949.20
2024-04-18T11:14:45.345Z,949.19
2024-04-18T11:15:45.369Z,949.19
2024-04-18T11:16:45.330Z,949.21
2024-04-18T11:17:45.350Z,949.20
2024-04-18T11:18:45.820Z,949.22
2024-04-18T11:19:45.294Z,949.19
2024-04-18T11:20:45.273Z,949.24
2024-04-18T11:21:45.366Z,949.22
2024-04-18T11:22:53.273Z,949.22
2024-04-18T11:23:50.006Z,949.24
2024-04-18T11:24:45.333Z,949.22
2024-04-18T11:25:45.198Z,949.22
2024-04-18T11:26:45.194Z,949.25
2024-04-18T11:27:45.358Z,949.22
2024-04-18T11:28:45.152Z,949.22
2024-04-18T11:29:45.152Z,949.17
2024-04-18T11:30:45.159Z,949.18
2024-04-18T11:31:45.124Z,949.28
2024-04-18T11:32:45.126Z,949.24
2024-04-18T11:33:45.123Z,949.20
2024-04-18T11:34:45.441Z,949.25
2024-04-18T11:35:45.076Z,949.23
2024-04-18T11:36:45.089Z,949.21
2024-04-18T11:37:45.026Z,949.22
2024-04-18T11:38:45.023Z,949.19
2024-04-18T11:39:45.055Z,949.22
2024-04-18T11:40:45.004Z,949.27
2024-04-18T11:41:45.016Z,949.26
2024-04-18T11:42:44.996Z,949.29
2024-04-18T11:43:44.992Z,949.30
2024-04-18T11:44:44.935Z,949.24
2024-04-18T11:45:44.955Z,949.25
2024-04-18T11:46:44.963Z,949.27
2024-04-18T11:47:45.010Z,949.24
2024-04-18T11:48:45.034Z,949.24
2024-04-18T11:49:44.863Z,949.27
2024-04-18T11:50:44.846Z,949.21
2024-04-18T11:51:44.843Z,949.18
2024-04-18T11:52:44.875Z,949.18
2024-04-18T11:53:44.807Z,949.17
2024-04-18T11:54:44.784Z,949.13
2024-04-18T11:55:44.779Z,949.19
2024-04-18T11:56:44.887Z,949.15
2024-04-18T11:57:44.763Z,949.17
2024-04-18T11:58:44.742Z,949.10
2024-04-18T11:59:44.717Z,949.13
2024-04-18T12:00:44.781Z,949.12
2024-04-18T12:01:44.731Z,949.12
2024-04-18T12:02:44.786Z,949.12
2024-04-18T12:03:44.855Z,949.15
2024-04-18T12:04:44.696Z,949.15
2024-04-18T12:05:44.642Z,949.14
2024-04-18T12:06:44.688Z,949.14
2024-04-18T12:07:44.610Z,949.15
2024-04-18T12:08:46.078Z,949.17
2024-04-18T12:09:44.636Z,949.25
2024-04-18T12:10:44.593Z,949.30
2024-04-18T12:11:44.595Z,949.32
2024-04-18T12:12:44.569Z,949.35
2024-04-18T12:13:44.566Z,949.31
2024-04-18T12:14:44.523Z,949.34
2024-04-18T12:15:44.574Z,949.41
2024-04-18T12:16:44.497Z,949.45
2024-04-18T12:17:44.526Z,949.49
2024-04-18T12:18:44.497Z,949.54
2024-04-18T12:19:45.062Z,949.54
2024-04-18T12:20:44.454Z,949.56
2024-04-18T12:21:44.415Z,949.61
2024-04-18T12:22:44.445Z,949.65
2024-04-18T12:23:44.527Z,949.70
2024-04-18T12:24:44.391Z,949.73
2024-04-18T12:25:44.394Z,949.83
2024-04-18T12:26:44.373Z,949.89
2024-04-18T12:27:44.387Z,949.80
2024-04-18T12:28:44.332Z,949.87
2024-04-18T12:29:44.323Z,949.94
2024-04-18T12:30:44.364Z,949.91
2024-04-18T12:31:44.297Z,949.93